South Greensboro, North Carolina
Current Conditions -  °F | °C
As of 4:54 AM on Friday 24 Oct 2014 (Local Time) from KGSO Reporting Station
Few Clouds Few Clouds  
Wind Chill: 45°   Ceiling: Unl
Heat Index: 45°   Visibility: 10mi
Dew Point: 40°   Wind: 0mph
Humidity: 82%   Direction: NA
Pressure: 30.02"   Gusts: NA
Location:  36°N, 79.7628°W
Report Text: KGSO 240854Z 00000KT 10SM FEW250 07/04 A3002 RMK AO2 SLP163 T00720044 50001
Loading
Personal Weather Stations






























Interactive Weather Map
Tropical Storm Tracking
New forecast layout! Learn more

10-Day Weather Forecast

Advertisements
Track Severe Weather on mobile